sensor_id;sensor_type;location;lat;lon;timestamp;pressure;altitude;pressure_sealevel;temperature;humidity
36092;BME280;22147;52.388;13.390;2023-01-28T00:01:16;102099.22;;;-2.98;100.00
36092;BME280;22147;52.388;13.390;2023-01-28T00:03:49;102094.34;;;-3.03;100.00
36092;BME280;22147;52.388;13.390;2023-01-28T00:06:20;102096.88;;;-3.08;100.00
36092;BME280;22147;52.388;13.390;2023-01-28T00:08:50;102102.69;;;-3.11;100.00
36092;BME280;22147;52.388;13.390;2023-01-28T00:11:21;102097.47;;;-3.13;100.00
36092;BME280;22147;52.388;13.390;2023-01-28T00:13:53;102095.38;;;-3.17;100.00
36092;BME280;22147;52.388;13.390;2023-01-28T00:16:23;102092.22;;;-3.21;100.00
36092;BME280;22147;52.388;13.390;2023-01-28T00:18:56;102085.50;;;-3.25;100.00
36092;BME280;22147;52.388;13.390;2023-01-28T00:21:25;102092.59;;;-3.31;100.00
36092;BME280;22147;52.388;13.390;2023-01-28T00:23:56;102095.09;;;-3.36;100.00
36092;BME280;22147;52.388;13.390;2023-01-28T00:26:26;102094.84;;;-3.41;100.00
36092;BME280;22147;52.388;13.390;2023-01-28T00:28:56;102099.22;;;-3.46;100.00
36092;BME280;22147;52.388;13.390;2023-01-28T00:31:26;102091.88;;;-3.53;100.00
36092;BME280;22147;52.388;13.390;2023-01-28T00:33:57;102100.63;;;-3.57;100.00
36092;BME280;22147;52.388;13.390;2023-01-28T00:36:27;102105.81;;;-3.62;100.00
36092;BME280;22147;52.388;13.390;2023-01-28T00:38:58;102107.22;;;-3.66;100.00
36092;BME280;22147;52.388;13.390;2023-01-28T00:41:29;102105.31;;;-3.73;100.00
36092;BME280;22147;52.388;13.390;2023-01-28T00:43:59;102100.47;;;-3.77;100.00
36092;BME280;22147;52.388;13.390;2023-01-28T00:46:28;102099.84;;;-3.79;100.00
36092;BME280;22147;52.388;13.390;2023-01-28T00:48:58;102104.63;;;-3.81;100.00
36092;BME280;22147;52.388;13.390;2023-01-28T00:51:28;102105.88;;;-3.84;100.00
36092;BME280;22147;52.388;13.390;2023-01-28T00:53:58;102100.44;;;-3.84;100.00
36092;BME280;22147;52.388;13.390;2023-01-28T00:56:28;102110.03;;;-3.88;100.00
36092;BME280;22147;52.388;13.390;2023-01-28T00:58:58;102109.78;;;-3.93;100.00
36092;BME280;22147;52.388;13.390;2023-01-28T01:01:28;102115.41;;;-3.95;100.00
36092;BME280;22147;52.388;13.390;2023-01-28T01:03:58;102118.31;;;-3.96;100.00
36092;BME280;22147;52.388;13.390;2023-01-28T01:06:38;102117.91;;;-4.00;100.00
36092;BME280;22147;52.388;13.390;2023-01-28T01:09:10;102124.16;;;-3.99;100.00
36092;BME280;22147;52.388;13.390;2023-01-28T01:11:40;102124.34;;;-4.01;100.00
36092;BME280;22147;52.388;13.390;2023-01-28T01:14:10;102117.25;;;-4.02;100.00
36092;BME280;22147;52.388;13.390;2023-01-28T01:16:40;102111.19;;;-4.04;100.00
36092;BME280;22147;52.388;13.390;2023-01-28T01:19:10;102114.31;;;-4.00;100.00
36092;BME280;22147;52.388;13.390;2023-01-28T01:21:39;102116.00;;;-3.99;100.00
36092;BME280;22147;52.388;13.390;2023-01-28T01:24:09;102113.50;;;-4.01;100.00
36092;BME280;22147;52.388;13.390;2023-01-28T01:26:39;102109.09;;;-4.02;100.00
36092;BME280;22147;52.388;13.390;2023-01-28T01:29:07;102113.03;;;-4.04;100.00
36092;BME280;22147;52.388;13.390;2023-01-28T01:31:36;102113.44;;;-4.07;100.00
36092;BME280;22147;52.388;13.390;2023-01-28T01:34:04;102101.75;;;-4.08;100.00
36092;BME280;22147;52.388;13.390;2023-01-28T01:36:33;102112.16;;;-4.12;100.00
36092;BME280;22147;52.388;13.390;2023-01-28T01:39:01;102108.59;;;-4.12;100.00
36092;BME280;22147;52.388;13.390;2023-01-28T01:41:32;102115.28;;;-4.15;100.00
36092;BME280;22147;52.388;13.390;2023-01-28T01:44:04;102124.63;;;-4.17;100.00
36092;BME280;22147;52.388;13.390;2023-01-28T01:46:50;102127.56;;;-4.19;100.00
36092;BME280;22147;52.388;13.390;2023-01-28T01:49:26;102128.38;;;-4.18;100.00
36092;BME280;22147;52.388;13.390;2023-01-28T01:52:17;102130.25;;;-4.19;100.00
36092;BME280;22147;52.388;13.390;2023-01-28T01:54:54;102136.97;;;-4.15;100.00
36092;BME280;22147;52.388;13.390;2023-01-28T01:57:33;102142.66;;;-4.10;100.00
36092;BME280;22147;52.388;13.390;2023-01-28T02:00:06;102138.31;;;-4.04;100.00
36092;BME280;22147;52.388;13.390;2023-01-28T02:02:42;102132.75;;;-3.96;100.00
36092;BME280;22147;52.388;13.390;2023-01-28T02:05:19;102135.50;;;-3.89;100.00
36092;BME280;22147;52.388;13.390;2023-01-28T02:07:55;102131.78;;;-3.81;100.00
36092;BME280;22147;52.388;13.390;2023-01-28T02:11:07;102137.06;;;-3.73;100.00
36092;BME280;22147;52.388;13.390;2023-01-28T02:13:44;102134.38;;;-3.66;100.00
36092;BME280;22147;52.388;13.390;2023-01-28T02:16:18;102148.00;;;-3.60;100.00
36092;BME280;22147;52.388;13.390;2023-01-28T02:18:48;102138.25;;;-3.54;100.00
36092;BME280;22147;52.388;13.390;2023-01-28T02:21:41;102147.47;;;-3.49;100.00
36092;BME280;22147;52.388;13.390;2023-01-28T02:34:05;102138.16;;;-3.26;100.00
36092;BME280;22147;52.388;13.390;2023-01-28T02:40:33;102134.06;;;-3.15;100.00
36092;BME280;22147;52.388;13.390;2023-01-28T02:43:40;102133.66;;;-3.12;100.00
36092;BME280;22147;52.388;13.390;2023-01-28T02:46:20;102139.31;;;-3.07;100.00
36092;BME280;22147;52.388;13.390;2023-01-28T02:49:29;102139.53;;;-3.02;100.00
36092;BME280;22147;52.388;13.390;2023-01-28T02:59:28;102143.56;;;-2.91;100.00
36092;BME280;22147;52.388;13.390;2023-01-28T03:02:18;102143.38;;;-2.90;100.00
36092;BME280;22147;52.388;13.390;2023-01-28T03:05:10;102143.38;;;-2.83;100.00
36092;BME280;22147;52.388;13.390;2023-01-28T03:07:56;102146.72;;;-2.81;100.00
36092;BME280;22147;52.388;13.390;2023-01-28T03:10:28;102148.19;;;-2.78;100.00
36092;BME280;22147;52.388;13.390;2023-01-28T03:12:58;102140.69;;;-2.76;100.00
36092;BME280;22147;52.388;13.390;2023-01-28T03:15:49;102145.69;;;-2.73;100.00
36092;BME280;22147;52.388;13.390;2023-01-28T03:18:50;102146.31;;;-2.71;100.00
36092;BME280;22147;52.388;13.390;2023-01-28T03:21:43;102156.19;;;-2.70;100.00
36092;BME280;22147;52.388;13.390;2023-01-28T03:24:44;102148.47;;;-2.67;100.00
36092;BME280;22147;52.388;13.390;2023-01-28T03:28:02;102143.22;;;-2.61;100.00
36092;BME280;22147;52.388;13.390;2023-01-28T03:31:16;102147.41;;;-2.59;100.00
36092;BME280;22147;52.388;13.390;2023-01-28T03:34:07;102135.50;;;-2.58;100.00
36092;BME280;22147;52.388;13.390;2023-01-28T03:36:59;102145.31;;;-2.57;100.00
36092;BME280;22147;52.388;13.390;2023-01-28T03:39:30;102143.22;;;-2.55;100.00
36092;BME280;22147;52.388;13.390;2023-01-28T03:42:06;102138.63;;;-2.54;100.00
36092;BME280;22147;52.388;13.390;2023-01-28T03:44:42;102136.53;;;-2.52;100.00
36092;BME280;22147;52.388;13.390;2023-01-28T03:47:25;102141.16;;;-2.53;100.00
36092;BME280;22147;52.388;13.390;2023-01-28T03:49:57;102134.69;;;-2.52;100.00
36092;BME280;22147;52.388;13.390;2023-01-28T03:52:30;102131.09;;;-2.52;100.00
36092;BME280;22147;52.388;13.390;2023-01-28T03:55:01;102140.75;;;-2.50;100.00
36092;BME280;22147;52.388;13.390;2023-01-28T03:57:42;102129.63;;;-2.48;100.00
36092;BME280;22147;52.388;13.390;2023-01-28T04:00:14;102138.66;;;-2.48;100.00
36092;BME280;22147;52.388;13.390;2023-01-28T04:02:45;102138.44;;;-2.46;100.00
36092;BME280;22147;52.388;13.390;2023-01-28T04:05:15;102137.19;;;-2.43;100.00
36092;BME280;22147;52.388;13.390;2023-01-28T04:07:48;102143.69;;;-2.44;100.00
36092;BME280;22147;52.388;13.390;2023-01-28T04:10:21;102135.31;;;-2.43;100.00
36092;BME280;22147;52.388;13.390;2023-01-28T04:12:51;102130.06;;;-2.38;100.00
36092;BME280;22147;52.388;13.390;2023-01-28T04:15:22;102128.81;;;-2.35;100.00
36092;BME280;22147;52.388;13.390;2023-01-28T04:17:52;102128.81;;;-2.35;100.00
36092;BME280;22147;52.388;13.390;2023-01-28T04:20:22;102135.94;;;-2.34;100.00
36092;BME280;22147;52.388;13.390;2023-01-28T04:22:52;102140.38;;;-2.20;100.00
36092;BME280;22147;52.388;13.390;2023-01-28T04:25:22;102140.56;;;-2.21;100.00
36092;BME280;22147;52.388;13.390;2023-01-28T04:27:52;102140.78;;;-2.23;100.00
36092;BME280;22147;52.388;13.390;2023-01-28T04:30:23;102143.50;;;-2.23;100.00
36092;BME280;22147;52.388;13.390;2023-01-28T04:32:53;102155.00;;;-2.14;100.00
36092;BME280;22147;52.388;13.390;2023-01-28T04:35:23;102155.63;;;-2.12;100.00
36092;BME280;22147;52.388;13.390;2023-01-28T04:37:53;102151.25;;;-2.13;100.00
36092;BME280;22147;52.388;13.390;2023-01-28T04:40:23;102156.69;;;-2.13;100.00
36092;BME280;22147;52.388;13.390;2023-01-28T04:42:54;102153.16;;;-2.14;100.00
36092;BME280;22147;52.388;13.390;2023-01-28T04:45:25;102153.53;;;-2.10;100.00
36092;BME280;22147;52.388;13.390;2023-01-28T04:47:55;102156.28;;;-2.10;100.00
36092;BME280;22147;52.388;13.390;2023-01-28T04:50:25;102151.69;;;-1.96;100.00
36092;BME280;22147;52.388;13.390;2023-01-28T04:52:55;102152.72;;;-1.97;100.00
36092;BME280;22147;52.388;13.390;2023-01-28T04:55:25;102152.31;;;-2.01;100.00
36092;BME280;22147;52.388;13.390;2023-01-28T04:57:53;102155.66;;;-1.99;100.00
36092;BME280;22147;52.388;13.390;2023-01-28T05:00:21;102147.25;;;-1.97;100.00
36092;BME280;22147;52.388;13.390;2023-01-28T05:02:50;102153.34;;;-1.95;100.00
36092;BME280;22147;52.388;13.390;2023-01-28T05:05:18;102151.69;;;-1.96;100.00
36092;BME280;22147;52.388;13.390;2023-01-28T05:07:52;102153.56;;;-1.97;100.00
36092;BME280;22147;52.388;13.390;2023-01-28T05:10:25;102159.41;;;-1.93;100.00
36092;BME280;22147;52.388;13.390;2023-01-28T05:12:54;102170.09;;;-1.92;100.00
36092;BME280;22147;52.388;13.390;2023-01-28T05:15:24;102164.03;;;-1.94;100.00
36092;BME280;22147;52.388;13.390;2023-01-28T05:17:54;102166.97;;;-1.95;100.00
36092;BME280;22147;52.388;13.390;2023-01-28T05:20:28;102175.34;;;-1.97;100.00
36092;BME280;22147;52.388;13.390;2023-01-28T05:22:57;102177.84;;;-1.95;100.00
36092;BME280;22147;52.388;13.390;2023-01-28T05:25:25;102172.84;;;-1.92;100.00
36092;BME280;22147;52.388;13.390;2023-01-28T05:27:53;102186.25;;;-1.90;100.00
36092;BME280;22147;52.388;13.390;2023-01-28T05:30:22;102185.63;;;-1.86;100.00
36092;BME280;22147;52.388;13.390;2023-01-28T05:32:55;102183.09;;;-1.87;100.00
36092;BME280;22147;52.388;13.390;2023-01-28T05:35:26;102183.09;;;-1.87;100.00
36092;BME280;22147;52.388;13.390;2023-01-28T05:37:56;102182.47;;;-1.89;100.00
36092;BME280;22147;52.388;13.390;2023-01-28T05:40:26;102169.69;;;-1.89;100.00
36092;BME280;22147;52.388;13.390;2023-01-28T05:42:56;102177.22;;;-1.91;100.00
36092;BME280;22147;52.388;13.390;2023-01-28T05:45:26;102185.38;;;-1.91;100.00
36092;BME280;22147;52.388;13.390;2023-01-28T05:47:56;102170.94;;;-1.91;100.00
36092;BME280;22147;52.388;13.390;2023-01-28T05:50:26;102175.34;;;-1.90;100.00
36092;BME280;22147;52.388;13.390;2023-01-28T05:52:56;102175.13;;;-1.89;100.00
36092;BME280;22147;52.388;13.390;2023-01-28T05:55:27;102173.47;;;-1.90;100.00
36092;BME280;22147;52.388;13.390;2023-01-28T05:57:57;102178.06;;;-1.90;100.00
36092;BME280;22147;52.388;13.390;2023-01-28T06:00:27;102180.81;;;-1.90;100.00
36092;BME280;22147;52.388;13.390;2023-01-28T06:02:57;102179.94;;;-1.91;100.00
36092;BME280;22147;52.388;13.390;2023-01-28T06:05:27;102178.28;;;-1.92;100.00
36092;BME280;22147;52.388;13.390;2023-01-28T06:07:58;102175.56;;;-1.92;100.00
36092;BME280;22147;52.388;13.390;2023-01-28T06:10:28;102182.03;;;-1.93;100.00
36092;BME280;22147;52.388;13.390;2023-01-28T06:12:58;102173.47;;;-1.96;100.00
36092;BME280;22147;52.388;13.390;2023-01-28T06:15:29;102176.19;;;-1.96;100.00
36092;BME280;22147;52.388;13.390;2023-01-28T06:17:59;102180.81;;;-1.97;100.00
36092;BME280;22147;52.388;13.390;2023-01-28T06:20:29;102184.56;;;-1.91;100.00
36092;BME280;22147;52.388;13.390;2023-01-28T06:22:59;102182.25;;;-1.88;100.00
36092;BME280;22147;52.388;13.390;2023-01-28T06:25:29;102180.81;;;-1.90;100.00
36092;BME280;22147;52.388;13.390;2023-01-28T06:27:59;102186.44;;;-1.92;100.00
36092;BME280;22147;52.388;13.390;2023-01-28T06:30:29;102178.28;;;-1.92;100.00
36092;BME280;22147;52.388;13.390;2023-01-28T06:32:59;102176.59;;;-1.93;100.00
36092;BME280;22147;52.388;13.390;2023-01-28T06:35:29;102187.72;;;-1.94;100.00
36092;BME280;22147;52.388;13.390;2023-01-28T06:37:59;102184.13;;;-1.95;100.00
36092;BME280;22147;52.388;13.390;2023-01-28T06:40:29;102184.13;;;-1.95;100.00
36092;BME280;22147;52.388;13.390;2023-01-28T06:42:59;102190.19;;;-1.93;100.00
36092;BME280;22147;52.388;13.390;2023-01-28T06:45:28;102185.81;;;-1.94;100.00
36092;BME280;22147;52.388;13.390;2023-01-28T06:47:56;102196.72;;;-1.94;100.00
36092;BME280;22147;52.388;13.390;2023-01-28T06:50:25;102200.25;;;-1.93;100.00
36092;BME280;22147;52.388;13.390;2023-01-28T06:52:53;102194.41;;;-1.90;100.00
36092;BME280;22147;52.388;13.390;2023-01-28T06:55:22;102191.69;;;-1.90;100.00
36092;BME280;22147;52.388;13.390;2023-01-28T06:57:50;102200.69;;;-1.90;100.00
36092;BME280;22147;52.388;13.390;2023-01-28T07:00:19;102198.16;;;-1.91;100.00
36092;BME280;22147;52.388;13.390;2023-01-28T07:02:47;102200.91;;;-1.91;100.00
36092;BME280;22147;52.388;13.390;2023-01-28T07:05:15;102195.25;;;-1.90;100.00
36092;BME280;22147;52.388;13.390;2023-01-28T07:07:44;102198.81;;;-1.89;100.00
36092;BME280;22147;52.388;13.390;2023-01-28T07:10:12;102196.06;;;-1.89;100.00
36092;BME280;22147;52.388;13.390;2023-01-28T07:12:40;102203.84;;;-1.86;100.00
36092;BME280;22147;52.388;13.390;2023-01-28T07:15:12;102196.69;;;-1.80;100.00
36092;BME280;22147;52.388;13.390;2023-01-28T07:17:44;102200.88;;;-1.78;100.00
36092;BME280;22147;52.388;13.390;2023-01-28T07:20:15;102205.50;;;-1.72;100.00
36092;BME280;22147;52.388;13.390;2023-01-28T07:22:46;102205.09;;;-1.69;100.00
36092;BME280;22147;52.388;13.390;2023-01-28T07:25:16;102208.00;;;-1.64;100.00
36092;BME280;22147;52.388;13.390;2023-01-28T07:27:52;102203.19;;;-1.61;100.00
36092;BME280;22147;52.388;13.390;2023-01-28T07:30:22;102209.91;;;-1.57;100.00
36092;BME280;22147;52.388;13.390;2023-01-28T07:32:55;102204.03;;;-1.48;100.00
36092;BME280;22147;52.388;13.390;2023-01-28T07:35:26;102207.16;;;-1.44;100.00
36092;BME280;22147;52.388;13.390;2023-01-28T07:37:59;102201.69;;;-1.44;100.00
36092;BME280;22147;52.388;13.390;2023-01-28T07:40:30;102198.78;;;-1.42;100.00
36092;BME280;22147;52.388;13.390;2023-01-28T07:43:00;102204.03;;;-1.41;100.00
36092;BME280;22147;52.388;13.390;2023-01-28T07:45:30;102201.91;;;-1.39;100.00
36092;BME280;22147;52.388;13.390;2023-01-28T07:48:05;102200.66;;;-1.36;100.00
36092;BME280;22147;52.388;13.390;2023-01-28T07:50:37;102200.25;;;-1.33;100.00
36092;BME280;22147;52.388;13.390;2023-01-28T07:53:11;102206.72;;;-1.34;100.00
36092;BME280;22147;52.388;13.390;2023-01-28T07:55:41;102207.34;;;-1.32;100.00
36092;BME280;22147;52.388;13.390;2023-01-28T07:58:12;102214.06;;;-1.28;100.00
36092;BME280;22147;52.388;13.390;2023-01-28T08:00:42;102208.41;;;-1.27;100.00
36092;BME280;22147;52.388;13.390;2023-01-28T08:03:14;102200.84;;;-1.25;100.00
36092;BME280;22147;52.388;13.390;2023-01-28T08:05:48;102203.97;;;-1.21;100.00
36092;BME280;22147;52.388;13.390;2023-01-28T08:08:20;102209.00;;;-1.18;100.00
36092;BME280;22147;52.388;13.390;2023-01-28T08:10:51;102207.72;;;-1.15;100.00
36092;BME280;22147;52.388;13.390;2023-01-28T08:13:19;102210.03;;;-1.12;100.00
36092;BME280;22147;52.388;13.390;2023-01-28T08:15:47;102207.09;;;-1.11;100.00
36092;BME280;22147;52.388;13.390;2023-01-28T08:18:16;102204.97;;;-1.09;100.00
36092;BME280;22147;52.388;13.390;2023-01-28T08:20:44;102219.25;;;-1.07;100.00
36092;BME280;22147;52.388;13.390;2023-01-28T08:23:19;102222.41;;;-1.03;100.00
36092;BME280;22147;52.388;13.390;2023-01-28T08:25:53;102228.47;;;-1.01;100.00
36092;BME280;22147;52.388;13.390;2023-01-28T08:28:26;102222.56;;;-0.98;100.00
36092;BME280;22147;52.388;13.390;2023-01-28T08:30:58;102229.28;;;-0.94;100.00
36092;BME280;22147;52.388;13.390;2023-01-28T08:33:28;102221.75;;;-0.98;100.00
36092;BME280;22147;52.388;13.390;2023-01-28T08:36:02;102232.22;;;-0.95;100.00
36092;BME280;22147;52.388;13.390;2023-01-28T08:38:31;102232.84;;;-0.93;100.00
36092;BME280;22147;52.388;13.390;2023-01-28T08:41:01;102236.63;;;-0.94;100.00
36092;BME280;22147;52.388;13.390;2023-01-28T08:43:31;102249.41;;;-0.88;100.00
36092;BME280;22147;52.388;13.390;2023-01-28T08:46:05;102252.97;;;-0.88;100.00
36092;BME280;22147;52.388;13.390;2023-01-28T08:48:33;102252.56;;;-0.85;100.00
36092;BME280;22147;52.388;13.390;2023-01-28T08:51:03;102247.09;;;-0.85;100.00
36092;BME280;22147;52.388;13.390;2023-01-28T08:53:34;102254.00;;;-0.82;100.00
36092;BME280;22147;52.388;13.390;2023-01-28T08:56:04;102248.31;;;-0.80;100.00
36092;BME280;22147;52.388;13.390;2023-01-28T08:58:34;102245.19;;;-0.77;100.00
36092;BME280;22147;52.388;13.390;2023-01-28T09:01:05;102249.16;;;-0.73;100.00
36092;BME280;22147;52.388;13.390;2023-01-28T09:03:35;102258.16;;;-0.73;100.00
36092;BME280;22147;52.388;13.390;2023-01-28T09:06:05;102258.78;;;-0.71;100.00
36092;BME280;22147;52.388;13.390;2023-01-28T09:08:35;102261.94;;;-0.67;100.00
36092;BME280;22147;52.388;13.390;2023-01-28T09:11:05;102267.78;;;-0.64;100.00
36092;BME280;22147;52.388;13.390;2023-01-28T09:13:36;102266.94;;;-0.64;100.00
36092;BME280;22147;52.388;13.390;2023-01-28T09:16:07;102268.81;;;-0.58;100.00
36092;BME280;22147;52.388;13.390;2023-01-28T09:18:36;102265.25;;;-0.58;100.00
36092;BME280;22147;52.388;13.390;2023-01-28T09:21:07;102271.75;;;-0.53;100.00
36092;BME280;22147;52.388;13.390;2023-01-28T09:23:37;102281.06;;;-0.22;100.00
36092;BME280;22147;52.388;13.390;2023-01-28T09:26:07;102282.56;;;-0.33;100.00
36092;BME280;22147;52.388;13.390;2023-01-28T09:28:37;102294.56;;;-0.41;100.00
36092;BME280;22147;52.388;13.390;2023-01-28T09:31:11;102283.69;;;-0.47;100.00
36092;BME280;22147;52.388;13.390;2023-01-28T09:33:40;102292.91;;;-0.42;100.00
36092;BME280;22147;52.388;13.390;2023-01-28T09:36:10;102297.28;;;-0.34;100.00
36092;BME280;22147;52.388;13.390;2023-01-28T09:38:40;102294.13;;;-0.31;99.79
36092;BME280;22147;52.388;13.390;2023-01-28T09:42:25;102295.94;;;-0.18;100.00
36092;BME280;22147;52.388;13.390;2023-01-28T09:45:21;102286.72;;;-0.17;99.35
36092;BME280;22147;52.388;13.390;2023-01-28T09:48:01;102287.28;;;-0.08;99.83
36092;BME280;22147;52.388;13.390;2023-01-28T09:50:37;102284.53;;;-0.02;99.59
36092;BME280;22147;52.388;13.390;2023-01-28T09:53:48;102293.50;;;0.06;100.00
36092;BME280;22147;52.388;13.390;2023-01-28T09:56:30;102296.06;;;0.01;95.35
36092;BME280;22147;52.388;13.390;2023-01-28T09:59:20;102293.09;;;0.02;97.06
36092;BME280;22147;52.388;13.390;2023-01-28T10:17:44;102288.66;;;0.08;97.25
36092;BME280;22147;52.388;13.390;2023-01-28T10:20:32;102288.44;;;0.09;94.49
36092;BME280;22147;52.388;13.390;2023-01-28T10:25:59;102288.59;;;0.14;95.64
36092;BME280;22147;52.388;13.390;2023-01-28T10:28:35;102276.63;;;0.15;95.45
36092;BME280;22147;52.388;13.390;2023-01-28T10:31:12;102285.63;;;0.23;92.67
36092;BME280;22147;52.388;13.390;2023-01-28T10:33:43;102280.41;;;0.14;93.51
36092;BME280;22147;52.388;13.390;2023-01-28T10:36:15;102276.69;;;0.09;93.88
36092;BME280;22147;52.388;13.390;2023-01-28T10:38:47;102279.16;;;0.10;95.50
36092;BME280;22147;52.388;13.390;2023-01-28T10:41:21;102277.25;;;0.17;96.07
36092;BME280;22147;52.388;13.390;2023-01-28T10:43:52;102276.69;;;0.34;92.93
36092;BME280;22147;52.388;13.390;2023-01-28T10:46:35;102279.72;;;0.26;92.29
36092;BME280;22147;52.388;13.390;2023-01-28T10:49:17;102285.19;;;0.26;95.17
36092;BME280;22147;52.388;13.390;2023-01-28T10:51:55;102270.19;;;0.35;92.76
36092;BME280;22147;52.388;13.390;2023-01-28T10:54:27;102269.63;;;0.26;94.61
36092;BME280;22147;52.388;13.390;2023-01-28T10:57:06;102270.94;;;0.17;92.33
36092;BME280;22147;52.388;13.390;2023-01-28T10:59:42;102276.09;;;0.32;90.01
36092;BME280;22147;52.388;13.390;2023-01-28T11:02:32;102282.81;;;0.29;93.92
36092;BME280;22147;52.388;13.390;2023-01-28T11:05:27;102275.50;;;0.30;93.92
36092;BME280;22147;52.388;13.390;2023-01-28T11:08:13;102276.53;;;0.29;96.04
36092;BME280;22147;52.388;13.390;2023-01-28T11:10:46;102279.66;;;0.32;97.36
36092;BME280;22147;52.388;13.390;2023-01-28T11:13:27;102275.03;;;0.33;96.77
36092;BME280;22147;52.388;13.390;2023-01-28T11:16:05;102274.97;;;0.39;95.35
36092;BME280;22147;52.388;13.390;2023-01-28T11:18:52;102272.25;;;0.39;91.21
36092;BME280;22147;52.388;13.390;2023-01-28T11:21:28;102274.97;;;0.39;94.62
36092;BME280;22147;52.388;13.390;2023-01-28T11:24:26;102273.66;;;0.49;92.17
36092;BME280;22147;52.388;13.390;2023-01-28T11:27:16;102270.03;;;0.23;94.96
36092;BME280;22147;52.388;13.390;2023-01-28T11:29:50;102265.66;;;0.22;92.64
36092;BME280;22147;52.388;13.390;2023-01-28T11:32:25;102254.06;;;0.27;92.90
36092;BME280;22147;52.388;13.390;2023-01-28T11:34:56;102258.34;;;0.16;93.39
36092;BME280;22147;52.388;13.390;2023-01-28T11:37:28;102259.00;;;0.11;94.88
36092;BME280;22147;52.388;13.390;2023-01-28T11:40:18;102253.53;;;0.11;94.91
36092;BME280;22147;52.388;13.390;2023-01-28T11:42:55;102263.97;;;0.21;94.30
36092;BME280;22147;52.388;13.390;2023-01-28T11:46:20;102253.00;;;0.28;94.47
36092;BME280;22147;52.388;13.390;2023-01-28T11:58:25;102242.28;;;0.26;94.27
36092;BME280;22147;52.388;13.390;2023-01-28T12:01:38;102234.91;;;0.27;95.86
36092;BME280;22147;52.388;13.390;2023-01-28T12:05:07;102230.06;;;0.29;94.84
36092;BME280;22147;52.388;13.390;2023-01-28T12:08:25;102236.66;;;0.46;96.95
36092;BME280;22147;52.388;13.390;2023-01-28T12:18:14;102231.41;;;0.19;100.00
36092;BME280;22147;52.388;13.390;2023-01-28T12:21:20;102231.16;;;0.28;100.00
36092;BME280;22147;52.388;13.390;2023-01-28T12:28:02;102228.16;;;0.29;100.00
36092;BME280;22147;52.388;13.390;2023-01-28T12:41:04;102229.31;;;0.47;100.00
36092;BME280;22147;52.388;13.390;2023-01-28T12:49:43;102224.03;;;0.70;100.00
36092;BME280;22147;52.388;13.390;2023-01-28T12:52:38;102212.91;;;0.65;100.00
36092;BME280;22147;52.388;13.390;2023-01-28T12:55:19;102218.63;;;0.64;100.00
36092;BME280;22147;52.388;13.390;2023-01-28T12:58:20;102229.66;;;0.75;100.00
36092;BME280;22147;52.388;13.390;2023-01-28T13:01:13;102217.91;;;0.50;100.00
36092;BME280;22147;52.388;13.390;2023-01-28T13:04:03;102212.44;;;0.50;100.00
36092;BME280;22147;52.388;13.390;2023-01-28T13:10:29;102209.84;;;0.36;100.00
36092;BME280;22147;52.388;13.390;2023-01-28T13:13:08;102209.16;;;0.41;100.00
36092;BME280;22147;52.388;13.390;2023-01-28T13:15:46;102212.09;;;0.39;100.00
36092;BME280;22147;52.388;13.390;2023-01-28T13:24:20;102195.84;;;0.26;100.00
36092;BME280;22147;52.388;13.390;2023-01-28T13:26:55;102173.50;;;0.29;100.00
36092;BME280;22147;52.388;13.390;2023-01-28T13:31:57;102178.97;;;0.29;100.00
36092;BME280;22147;52.388;13.390;2023-01-28T13:34:40;102184.38;;;0.36;100.00
36092;BME280;22147;52.388;13.390;2023-01-28T13:37:39;102174.06;;;0.38;100.00
36092;BME280;22147;52.388;13.390;2023-01-28T13:42:43;102185.38;;;0.42;100.00
36092;BME280;22147;52.388;13.390;2023-01-28T13:47:52;102168.16;;;0.41;100.00
36092;BME280;22147;52.388;13.390;2023-01-28T13:50:38;102172.25;;;0.50;100.00
36092;BME280;22147;52.388;13.390;2023-01-28T13:56:21;102173.47;;;0.54;100.00
36092;BME280;22147;52.388;13.390;2023-01-28T14:03:30;102176.31;;;0.23;100.00
36092;BME280;22147;52.388;13.390;2023-01-28T14:05:58;102174.31;;;0.11;100.00
36092;BME280;22147;52.388;13.390;2023-01-28T14:21:18;102175.53;;;0.59;98.21
36092;BME280;22147;52.388;13.390;2023-01-28T14:23:55;102169.59;;;0.44;99.26
36092;BME280;22147;52.388;13.390;2023-01-28T14:32:15;102143.34;;;0.17;100.00
36092;BME280;22147;52.388;13.390;2023-01-28T14:34:48;102147.81;;;0.12;100.00
36092;BME280;22147;52.388;13.390;2023-01-28T14:37:28;102151.38;;;0.12;100.00
36092;BME280;22147;52.388;13.390;2023-01-28T14:40:07;102137.22;;;0.22;99.11
36092;BME280;22147;52.388;13.390;2023-01-28T14:42:53;102145.97;;;0.31;96.79
36092;BME280;22147;52.388;13.390;2023-01-28T14:51:38;102166.88;;;0.18;100.00
36092;BME280;22147;52.388;13.390;2023-01-28T14:54:46;102162.69;;;0.16;100.00
36092;BME280;22147;52.388;13.390;2023-01-28T14:57:53;102175.28;;;0.17;100.00
36092;BME280;22147;52.388;13.390;2023-01-28T15:00:30;102181.22;;;0.14;100.00
36092;BME280;22147;52.388;13.390;2023-01-28T15:03:16;102176.75;;;0.19;100.00
36092;BME280;22147;52.388;13.390;2023-01-28T15:08:33;102177.31;;;0.03;100.00
36092;BME280;22147;52.388;13.390;2023-01-28T15:11:08;102173.56;;;-0.03;100.00
36092;BME280;22147;52.388;13.390;2023-01-28T15:13:48;102171.56;;;-0.14;100.00
36092;BME280;22147;52.388;13.390;2023-01-28T15:16:27;102174.91;;;-0.12;100.00
36092;BME280;22147;52.388;13.390;2023-01-28T15:19:07;102185.47;;;-0.22;100.00
36092;BME280;22147;52.388;13.390;2023-01-28T15:21:42;102178.63;;;-0.31;100.00
36092;BME280;22147;52.388;13.390;2023-01-28T15:24:14;102173.81;;;-0.36;100.00
36092;BME280;22147;52.388;13.390;2023-01-28T15:26:47;102177.78;;;-0.38;100.00